createdAt,value
2019-05-14T00:02:22.822Z,13.40
2019-05-14T00:04:53.173Z,14.03
2019-05-14T00:07:23.237Z,12.90
2019-05-14T00:09:53.395Z,12.67
2019-05-14T00:12:23.536Z,12.97
2019-05-14T00:14:53.817Z,13.07
2019-05-14T00:17:23.937Z,13.00
2019-05-14T00:20:06.522Z,13.30
2019-05-14T00:22:26.066Z,12.53
2019-05-14T00:24:57.091Z,13.73
2019-05-14T00:27:27.385Z,14.17
2019-05-14T00:29:57.673Z,12.70
2019-05-14T00:32:27.927Z,13.47
2019-05-14T00:34:58.142Z,12.73
2019-05-14T00:37:28.331Z,12.33
2019-05-14T00:39:58.454Z,11.93
2019-05-14T00:42:28.679Z,11.90
2019-05-14T00:45:01.047Z,12.03
2019-05-14T00:47:30.987Z,13.27
2019-05-14T00:50:02.186Z,11.50
2019-05-14T00:52:32.484Z,13.00
2019-05-14T00:55:02.645Z,12.73
2019-05-14T00:57:32.773Z,14.03
2019-05-14T01:00:03.032Z,12.53
2019-05-14T01:02:33.303Z,11.27
2019-05-14T01:05:03.902Z,11.77
2019-05-14T01:07:34.063Z,12.00
2019-05-14T01:10:04.745Z,11.17
2019-05-14T01:12:34.922Z,10.57
2019-05-14T01:15:10.166Z,11.37
2019-05-14T01:17:37.449Z,10.67
2019-05-14T01:20:08.091Z,11.23
2019-05-14T01:22:38.231Z,10.87
2019-05-14T01:25:08.614Z,11.83
2019-05-14T01:27:41.118Z,10.63
2019-05-14T01:30:12.441Z,11.83
2019-05-14T01:32:42.930Z,11.80
2019-05-14T01:35:13.150Z,11.10
2019-05-14T01:37:43.262Z,11.60
2019-05-14T01:40:13.692Z,12.63
2019-05-14T01:42:44.723Z,11.30
2019-05-14T01:45:25.090Z,11.17
2019-05-14T01:47:46.757Z,11.10
2019-05-14T01:50:16.872Z,11.27
2019-05-14T01:52:47.055Z,11.43
2019-05-14T01:55:17.290Z,11.37
2019-05-14T01:57:47.346Z,11.13
2019-05-14T02:00:17.758Z,11.07
2019-05-14T02:02:47.892Z,11.70
2019-05-14T02:05:17.967Z,10.03
2019-05-14T02:07:48.074Z,10.67
2019-05-14T02:10:18.222Z,10.70
2019-05-14T02:12:48.405Z,10.63
2019-05-14T02:15:21.248Z,10.40
2019-05-14T02:17:51.849Z,10.53
2019-05-14T02:20:22.190Z,10.43
2019-05-14T02:22:52.549Z,9.90
2019-05-14T02:25:22.829Z,10.33
2019-05-14T02:27:53.013Z,10.13
2019-05-14T02:30:41.382Z,10.80
2019-05-14T02:32:59.598Z,10.63
2019-05-14T02:35:30.077Z,10.57
2019-05-14T02:38:00.402Z,10.20
2019-05-14T02:40:30.553Z,10.47
2019-05-14T02:43:00.750Z,11.00
2019-05-14T02:45:30.843Z,10.67
2019-05-14T02:48:00.933Z,9.90
2019-05-14T02:50:31.033Z,10.43
2019-05-14T02:53:01.174Z,9.93
2019-05-14T02:55:31.395Z,10.37
2019-05-14T02:58:01.639Z,10.50
2019-05-14T03:00:31.882Z,11.03
2019-05-14T03:03:02.119Z,10.33
2019-05-14T03:05:32.335Z,10.23
2019-05-14T03:08:02.370Z,11.07
2019-05-14T03:10:32.570Z,11.77
2019-05-14T03:13:02.663Z,10.80
2019-05-14T03:15:32.772Z,10.77
2019-05-14T03:18:02.978Z,11.30
2019-05-14T03:20:33.104Z,11.77
2019-05-14T03:23:09.036Z,10.90
2019-05-14T03:25:35.083Z,11.23
2019-05-14T03:28:05.226Z,11.30
2019-05-14T03:30:35.564Z,11.33
2019-05-14T03:33:05.844Z,10.67
2019-05-14T03:35:44.289Z,11.50
2019-05-14T03:38:09.434Z,11.27
2019-05-14T03:40:40.199Z,11.70
2019-05-14T03:43:10.535Z,11.10
2019-05-14T03:45:40.711Z,11.27
2019-05-14T03:48:10.934Z,12.10
2019-05-14T03:50:41.092Z,13.23
2019-05-14T03:53:12.829Z,11.93
2019-05-14T03:55:44.282Z,13.73
2019-05-14T03:58:14.543Z,12.77
2019-05-14T04:00:50.951Z,12.97
2019-05-14T04:03:21.996Z,12.63
2019-05-14T04:05:52.927Z,12.73
2019-05-14T04:08:29.053Z,13.57
2019-05-14T04:10:59.283Z,14.00
2019-05-14T04:13:31.042Z,14.23
2019-05-14T04:16:03.309Z,14.87
2019-05-14T04:18:40.195Z,16.60
2019-05-14T04:21:10.356Z,14.83
2019-05-14T04:23:44.295Z,17.50
2019-05-14T04:26:19.821Z,16.60
2019-05-14T04:28:50.501Z,17.63
2019-05-14T04:31:21.200Z,15.63
2019-05-14T04:33:52.238Z,19.73
2019-05-14T04:36:22.629Z,17.53
2019-05-14T04:38:55.249Z,18.57
2019-05-14T04:41:25.610Z,17.73
2019-05-14T04:43:59.199Z,18.17
2019-05-14T04:46:30.204Z,17.60
2019-05-14T04:49:00.881Z,18.00
2019-05-14T04:51:31.149Z,17.27
2019-05-14T04:54:01.340Z,17.90
2019-05-14T04:56:31.478Z,17.57
2019-05-14T04:59:02.706Z,18.60
2019-05-14T05:01:32.970Z,22.53
2019-05-14T05:04:03.126Z,19.03
2019-05-14T05:06:33.181Z,19.07
2019-05-14T05:09:04.784Z,18.30
2019-05-14T05:11:34.929Z,18.17
2019-05-14T05:14:05.418Z,19.07
2019-05-14T05:16:35.519Z,19.17
2019-05-14T05:19:05.594Z,18.20
2019-05-14T05:21:35.717Z,18.57
2019-05-14T05:24:05.758Z,17.20
2019-05-14T05:26:35.947Z,16.83
2019-05-14T05:29:09.632Z,16.60
2019-05-14T05:31:38.252Z,56.47
2019-05-14T05:34:09.058Z,27.83
2019-05-14T05:36:39.390Z,15.83
2019-05-14T05:39:09.614Z,16.40
2019-05-14T05:41:39.806Z,16.47
2019-05-14T05:44:09.989Z,15.93
2019-05-14T05:46:43.124Z,14.57
2019-05-14T05:49:11.972Z,15.03
2019-05-14T05:51:42.025Z,15.77
2019-05-14T05:54:12.212Z,14.73
2019-05-14T05:56:42.326Z,15.90
2019-05-14T05:59:12.387Z,16.30
2019-05-14T06:01:46.481Z,13.70
2019-05-14T06:04:14.766Z,13.93
2019-05-14T06:06:44.902Z,13.67
2019-05-14T06:09:14.954Z,13.57
2019-05-14T06:11:45.065Z,13.23
2019-05-14T06:14:15.242Z,13.07
2019-05-14T06:16:45.472Z,12.67
2019-05-14T06:19:15.593Z,12.37
2019-05-14T06:21:49.276Z,10.67
2019-05-14T06:24:19.512Z,12.37
2019-05-14T06:26:49.845Z,13.47
2019-05-14T06:29:20.040Z,13.60
2019-05-14T06:31:50.217Z,13.03
2019-05-14T06:34:20.432Z,12.77
2019-05-14T06:36:50.647Z,15.83
2019-05-14T06:39:20.815Z,12.50
2019-05-14T06:41:50.966Z,11.67
2019-05-14T06:44:21.172Z,12.83
2019-05-14T06:46:52.913Z,14.47
2019-05-14T06:49:23.264Z,12.50
2019-05-14T06:51:53.522Z,14.37
2019-05-14T06:54:23.677Z,13.30
2019-05-14T06:56:53.794Z,12.37
2019-05-14T06:59:23.907Z,12.97
2019-05-14T07:01:54.136Z,13.40
2019-05-14T07:04:24.364Z,12.50
2019-05-14T07:06:54.506Z,14.33
2019-05-14T07:09:25.580Z,12.40
2019-05-14T07:11:58.301Z,12.90
2019-05-14T07:14:28.236Z,13.07
2019-05-14T07:16:59.037Z,11.33
2019-05-14T07:19:29.662Z,11.23
2019-05-14T07:22:00.086Z,12.60
2019-05-14T07:24:30.352Z,14.33
2019-05-14T07:27:00.486Z,13.27
2019-05-14T07:29:30.602Z,14.93
2019-05-14T07:32:00.744Z,12.03
2019-05-14T07:34:30.943Z,10.93
2019-05-14T07:37:01.006Z,10.00
2019-05-14T07:39:31.230Z,10.83
2019-05-14T07:42:01.289Z,10.17
2019-05-14T07:44:31.458Z,11.13
2019-05-14T07:47:01.646Z,11.07
2019-05-14T07:49:31.777Z,12.43
2019-05-14T07:52:01.902Z,13.27
2019-05-14T07:54:32.050Z,12.50
2019-05-14T07:57:02.214Z,10.60
2019-05-14T07:59:32.327Z,9.37
2019-05-14T08:02:02.459Z,7.90
2019-05-14T08:04:32.573Z,7.97
2019-05-14T08:07:02.608Z,6.40
2019-05-14T08:09:32.758Z,6.53
2019-05-14T08:12:02.880Z,6.40
2019-05-14T08:14:41.895Z,6.20
2019-05-14T08:17:04.750Z,5.20
2019-05-14T08:19:34.886Z,7.63
2019-05-14T08:22:05.131Z,5.30
2019-05-14T08:24:35.291Z,5.40
2019-05-14T08:27:05.394Z,3.90
2019-05-14T08:29:37.514Z,4.30
2019-05-14T08:32:08.778Z,22.90
2019-05-14T08:34:39.294Z,6.30
2019-05-14T08:37:09.603Z,6.47
2019-05-14T08:39:39.736Z,11.73
2019-05-14T08:42:09.971Z,16.60
2019-05-14T08:44:40.149Z,11.97
2019-05-14T08:47:10.348Z,7.90
2019-05-14T08:49:46.301Z,7.63
2019-05-14T08:52:15.876Z,6.07
2019-05-14T08:54:44.246Z,5.40
2019-05-14T08:57:14.483Z,4.10
2019-05-14T08:59:44.640Z,4.67
2019-05-14T09:02:14.763Z,4.20
2019-05-14T09:04:44.961Z,4.00
2019-05-14T09:07:15.138Z,4.60
2019-05-14T09:09:48.639Z,27.90
2019-05-14T09:12:18.821Z,4.90
2019-05-14T09:14:49.127Z,2.30
2019-05-14T09:17:19.263Z,2.57
2019-05-14T09:20:02.156Z,2.60
2019-05-14T09:22:21.086Z,2.63
2019-05-14T09:24:51.259Z,2.93
2019-05-14T09:27:21.380Z,3.13
2019-05-14T09:29:51.483Z,3.27
2019-05-14T09:32:22.766Z,3.30
2019-05-14T09:34:52.802Z,4.13
2019-05-14T09:37:22.922Z,3.90
2019-05-14T09:39:53.115Z,4.00
2019-05-14T09:42:23.306Z,4.20
2019-05-14T09:44:53.427Z,3.70
2019-05-14T09:47:24.142Z,3.27
2019-05-14T09:49:54.414Z,4.47
2019-05-14T09:52:24.579Z,4.43
2019-05-14T09:54:54.661Z,4.17
2019-05-14T09:57:24.826Z,3.07
2019-05-14T09:59:54.958Z,2.90
2019-05-14T10:02:25.144Z,4.33
2019-05-14T10:04:55.277Z,3.63
2019-05-14T10:07:25.318Z,3.50
2019-05-14T10:09:55.470Z,4.20
2019-05-14T10:12:25.601Z,4.07
2019-05-14T10:14:55.793Z,5.00
2019-05-14T10:17:25.836Z,6.27
2019-05-14T10:19:55.961Z,4.30
2019-05-14T10:22:28.434Z,5.20
2019-05-14T10:24:58.270Z,4.50
2019-05-14T10:27:28.540Z,5.13
2019-05-14T10:29:58.963Z,5.20
2019-05-14T10:32:30.171Z,4.60
2019-05-14T10:35:00.279Z,4.60
2019-05-14T10:37:30.520Z,5.10
2019-05-14T10:40:00.560Z,5.20
2019-05-14T10:42:30.625Z,4.23
2019-05-14T10:45:00.854Z,5.00
2019-05-14T10:47:31.058Z,5.60
2019-05-14T10:50:01.164Z,5.40
2019-05-14T10:52:31.217Z,4.67
2019-05-14T10:55:01.404Z,4.23
2019-05-14T10:57:31.682Z,4.50
2019-05-14T11:00:01.775Z,4.70
2019-05-14T11:02:32.439Z,4.47
2019-05-14T11:05:02.669Z,4.93
2019-05-14T11:07:32.848Z,4.70
2019-05-14T11:10:02.896Z,5.43
2019-05-14T11:12:34.181Z,4.90
2019-05-14T11:15:04.648Z,4.73
2019-05-14T11:17:34.859Z,5.00
2019-05-14T11:20:05.240Z,6.13
2019-05-14T11:22:35.364Z,5.00
2019-05-14T11:25:08.941Z,4.83
2019-05-14T11:27:38.906Z,6.90
2019-05-14T11:30:09.944Z,6.40
2019-05-14T11:32:40.046Z,6.27
2019-05-14T11:35:12.746Z,6.67
2019-05-14T11:37:42.598Z,8.80
2019-05-14T11:40:12.959Z,8.03
2019-05-14T11:42:43.090Z,6.10
2019-05-14T11:45:14.052Z,5.40
2019-05-14T11:47:45.223Z,6.10
2019-05-14T11:50:15.446Z,5.07
2019-05-14T11:52:45.542Z,5.90
2019-05-14T11:55:27.587Z,5.90
2019-05-14T11:57:58.247Z,5.60
2019-05-14T12:00:29.697Z,6.87
2019-05-14T12:02:59.992Z,5.60
2019-05-14T12:05:30.598Z,4.73
2019-05-14T12:08:00.788Z,5.73
2019-05-14T12:10:31.637Z,6.13
2019-05-14T12:13:01.814Z,4.60
2019-05-14T12:15:31.902Z,6.03
2019-05-14T12:18:02.089Z,5.40
2019-05-14T12:20:32.216Z,7.20
2019-05-14T12:23:02.336Z,5.47
2019-05-14T12:25:32.526Z,5.63
2019-05-14T12:28:02.859Z,5.93
2019-05-14T12:30:32.970Z,6.53
2019-05-14T12:33:03.282Z,7.20
2019-05-14T12:35:33.403Z,8.47
2019-05-14T12:38:03.535Z,8.23
2019-05-14T12:40:33.611Z,7.30
2019-05-14T12:43:03.649Z,7.03
2019-05-14T12:45:33.798Z,7.70
2019-05-14T12:48:03.938Z,6.00
2019-05-14T12:50:35.011Z,7.20
2019-05-14T12:53:05.206Z,6.87
2019-05-14T12:55:35.366Z,5.87
2019-05-14T12:58:05.486Z,5.90
2019-05-14T13:00:35.561Z,7.23
2019-05-14T13:03:05.762Z,7.00
2019-05-14T13:05:35.898Z,8.00
2019-05-14T13:08:05.972Z,7.60
2019-05-14T13:10:38.431Z,6.87
2019-05-14T13:13:08.542Z,6.60
2019-05-14T13:15:39.473Z,6.30
2019-05-14T13:18:09.614Z,5.50
2019-05-14T13:20:39.690Z,5.17
2019-05-14T13:23:10.189Z,6.03
2019-05-14T13:25:40.398Z,5.43
2019-05-14T13:28:10.610Z,6.27
2019-05-14T13:30:40.723Z,5.00
2019-05-14T13:33:10.784Z,6.87
2019-05-14T13:35:40.921Z,7.10
2019-05-14T13:38:14.311Z,7.10
2019-05-14T13:40:42.949Z,6.90
2019-05-14T13:43:14.542Z,7.00
2019-05-14T13:45:45.157Z,7.40
2019-05-14T13:48:15.277Z,5.10
2019-05-14T13:50:45.488Z,4.80
2019-05-14T13:53:15.751Z,7.80
2019-05-14T13:55:50.685Z,8.47
2019-05-14T13:58:20.881Z,8.10
2019-05-14T14:00:52.052Z,7.50
2019-05-14T14:03:21.310Z,7.70
2019-05-14T14:05:51.609Z,5.97
2019-05-14T14:08:21.719Z,6.63
2019-05-14T14:10:53.908Z,7.43
2019-05-14T14:13:23.773Z,8.20
2019-05-14T14:15:53.875Z,9.23
2019-05-14T14:18:26.340Z,8.50
2019-05-14T14:20:55.754Z,6.43
2019-05-14T14:23:30.750Z,5.77
2019-05-14T14:25:59.578Z,5.97
2019-05-14T14:28:29.592Z,6.63
2019-05-14T14:30:59.778Z,5.20
2019-05-14T14:33:29.967Z,5.47
2019-05-14T14:36:00.154Z,6.17
2019-05-14T14:38:30.193Z,5.10
2019-05-14T14:41:00.234Z,5.40
2019-05-14T14:43:30.492Z,6.03
2019-05-14T14:46:00.559Z,5.83
2019-05-14T14:48:30.773Z,5.13
2019-05-14T14:51:01.061Z,6.10
2019-05-14T14:53:46.135Z,8.17
2019-05-14T14:56:03.021Z,9.50
2019-05-14T14:58:33.297Z,10.47
2019-05-14T15:01:03.424Z,11.80
2019-05-14T15:03:33.618Z,10.23
2019-05-14T15:06:03.681Z,9.87
2019-05-14T15:08:33.818Z,9.50
2019-05-14T15:11:04.019Z,13.93
2019-05-14T15:13:34.064Z,9.40
2019-05-14T15:16:04.269Z,9.63
2019-05-14T15:18:34.459Z,10.87
2019-05-14T15:21:04.624Z,9.57
2019-05-14T15:23:38.964Z,8.77
2019-05-14T15:26:11.493Z,10.87
2019-05-14T15:28:38.751Z,12.67
2019-05-14T15:31:09.115Z,12.43
2019-05-14T15:33:39.377Z,9.93
2019-05-14T15:36:09.642Z,9.73
2019-05-14T15:38:39.985Z,11.67
2019-05-14T15:41:13.413Z,12.50
2019-05-14T15:43:42.083Z,10.23
2019-05-14T15:46:12.907Z,10.07
2019-05-14T15:48:48.877Z,11.00
2019-05-14T15:51:19.792Z,11.40
2019-05-14T15:54:05.478Z,8.97
2019-05-14T15:56:29.647Z,12.07
2019-05-14T15:59:01.134Z,12.37
2019-05-14T16:01:30.288Z,11.50
2019-05-14T16:04:05.245Z,10.20
2019-05-14T16:06:38.627Z,13.23
2019-05-14T16:09:13.717Z,12.97
2019-05-14T16:11:48.283Z,9.83
2019-05-14T16:14:20.370Z,11.20
2019-05-14T16:16:50.807Z,10.67
2019-05-14T16:19:22.002Z,11.87
2019-05-14T16:21:53.558Z,10.60
2019-05-14T16:24:23.670Z,9.93
2019-05-14T16:26:53.884Z,10.80
2019-05-14T16:29:36.864Z,9.90
2019-05-14T16:31:58.209Z,10.83
2019-05-14T16:34:28.778Z,10.90
2019-05-14T16:36:59.076Z,10.40
2019-05-14T16:39:29.367Z,10.80
2019-05-14T16:41:59.545Z,10.57
2019-05-14T16:44:29.718Z,11.37
2019-05-14T16:46:59.764Z,13.00
2019-05-14T16:49:30.166Z,55.00
2019-05-14T16:52:01.764Z,44.77
2019-05-14T16:54:31.958Z,93.03
2019-05-14T16:57:02.117Z,26.67
2019-05-14T16:59:32.349Z,58.63
2019-05-14T17:02:02.599Z,79.77
2019-05-14T17:04:32.660Z,13.20
2019-05-14T17:07:04.160Z,71.97
2019-05-14T17:09:34.241Z,29.63
2019-05-14T17:12:04.294Z,67.73
2019-05-14T17:14:34.440Z,18.47
2019-05-14T17:17:05.709Z,14.33
2019-05-14T17:19:35.878Z,17.33
2019-05-14T17:22:21.332Z,14.00
2019-05-14T17:24:39.863Z,14.70
2019-05-14T17:27:09.699Z,13.93
2019-05-14T17:29:39.826Z,13.43
2019-05-14T17:32:10.013Z,12.73
2019-05-14T17:34:40.119Z,12.13
2019-05-14T17:37:10.336Z,11.83
2019-05-14T17:39:40.486Z,13.13
2019-05-14T17:42:11.665Z,20.00
2019-05-14T17:44:42.243Z,13.80
2019-05-14T17:47:12.401Z,14.60
2019-05-14T17:49:42.651Z,13.00
2019-05-14T17:52:12.852Z,14.87
2019-05-14T17:54:43.131Z,15.70
2019-05-14T17:57:13.208Z,14.67
2019-05-14T17:59:43.430Z,13.43
2019-05-14T18:02:13.559Z,15.70
2019-05-14T18:04:43.718Z,18.30
2019-05-14T18:07:13.898Z,18.00
2019-05-14T18:09:44.104Z,18.60
2019-05-14T18:12:14.913Z,20.67
2019-05-14T18:14:48.072Z,21.37
2019-05-14T18:17:18.842Z,21.07
2019-05-14T18:19:49.587Z,24.63
2019-05-14T18:22:19.755Z,23.23
2019-05-14T18:24:49.951Z,29.47
2019-05-14T18:27:20.198Z,19.03
2019-05-14T18:29:50.327Z,19.17
2019-05-14T18:32:21.596Z,16.20
2019-05-14T18:34:51.847Z,27.00
2019-05-14T18:37:22.032Z,19.23
2019-05-14T18:39:52.231Z,18.83
2019-05-14T18:42:22.439Z,20.37
2019-05-14T18:44:52.570Z,17.03
2019-05-14T18:47:22.770Z,17.23
2019-05-14T18:49:52.843Z,17.63
2019-05-14T18:52:23.036Z,16.20
2019-05-14T18:54:53.326Z,18.33
2019-05-14T18:57:23.662Z,15.93
2019-05-14T18:59:54.238Z,17.67
2019-05-14T19:02:29.312Z,17.97
2019-05-14T19:04:59.352Z,14.83
2019-05-14T19:07:29.801Z,16.93
2019-05-14T19:09:59.938Z,16.73
2019-05-14T19:12:33.047Z,19.43
2019-05-14T19:15:03.264Z,16.03
2019-05-14T19:17:34.869Z,14.57
2019-05-14T19:20:05.123Z,15.07
2019-05-14T19:22:35.274Z,14.13
2019-05-14T19:25:05.533Z,14.03
2019-05-14T19:27:37.828Z,14.10
2019-05-14T19:30:08.617Z,15.77
2019-05-14T19:32:39.512Z,14.53
2019-05-14T19:35:10.242Z,15.70
2019-05-14T19:37:40.394Z,15.67
2019-05-14T19:40:10.951Z,17.47
2019-05-14T19:42:41.162Z,20.10
2019-05-14T19:45:11.563Z,16.13
2019-05-14T19:47:41.689Z,24.93
2019-05-14T19:50:12.101Z,17.10
2019-05-14T19:52:42.494Z,17.90
2019-05-14T19:55:12.827Z,18.20
2019-05-14T19:57:43.574Z,19.20
2019-05-14T20:00:14.128Z,17.53
2019-05-14T20:02:44.427Z,16.67
2019-05-14T20:05:18.974Z,16.57
2019-05-14T20:07:49.091Z,16.40
2019-05-14T20:10:19.573Z,16.93
2019-05-14T20:12:49.653Z,18.37
2019-05-14T20:15:19.819Z,18.23
2019-05-14T20:17:50.437Z,18.17
2019-05-14T20:20:20.615Z,18.53
2019-05-14T20:22:50.886Z,19.53
2019-05-14T20:25:21.680Z,17.70
2019-05-14T20:27:52.024Z,18.57
2019-05-14T20:30:22.386Z,18.00
2019-05-14T20:32:52.712Z,19.17
2019-05-14T20:35:31.758Z,18.50
2019-05-14T20:37:54.790Z,20.10
2019-05-14T20:40:24.936Z,19.07
2019-05-14T20:42:58.619Z,18.97
2019-05-14T20:45:28.932Z,19.83
2019-05-14T20:47:59.486Z,19.80
2019-05-14T20:50:29.607Z,20.50
2019-05-14T20:52:59.725Z,20.50
2019-05-14T20:55:29.888Z,21.07
2019-05-14T20:58:01.535Z,21.93
2019-05-14T21:00:31.746Z,20.50
2019-05-14T21:03:01.897Z,22.57
2019-05-14T21:05:32.065Z,21.20
2019-05-14T21:08:02.284Z,22.87
2019-05-14T21:10:32.494Z,23.23
2019-05-14T21:13:02.734Z,24.43
2019-05-14T21:15:32.971Z,22.40
2019-05-14T21:18:03.154Z,23.50
2019-05-14T21:20:33.457Z,24.40
2019-05-14T21:23:03.604Z,25.60
2019-05-14T21:25:33.806Z,25.23
2019-05-14T21:28:03.920Z,24.67
2019-05-14T21:30:35.330Z,24.83
2019-05-14T21:33:08.305Z,24.73
2019-05-14T21:35:39.048Z,22.70
2019-05-14T21:38:09.486Z,23.83
2019-05-14T21:40:39.727Z,23.47
2019-05-14T21:43:11.358Z,22.83
2019-05-14T21:45:41.603Z,24.83
2019-05-14T21:48:11.854Z,24.30
2019-05-14T21:50:42.063Z,24.83
2019-05-14T21:53:12.205Z,24.10
2019-05-14T21:55:42.651Z,24.80
2019-05-14T21:58:12.858Z,26.70
2019-05-14T22:00:48.584Z,25.33
2019-05-14T22:03:20.839Z,25.07
2019-05-14T22:05:51.879Z,25.30
2019-05-14T22:08:22.105Z,24.07
2019-05-14T22:10:52.229Z,24.23
2019-05-14T22:13:23.317Z,24.20
2019-05-14T22:15:53.632Z,27.17
2019-05-14T22:18:23.762Z,25.60
2019-05-14T22:20:55.019Z,26.23
2019-05-14T22:23:25.132Z,29.13
2019-05-14T22:25:55.310Z,26.73
2019-05-14T22:28:25.562Z,28.40
2019-05-14T22:30:55.739Z,27.30
2019-05-14T22:33:28.302Z,28.17
2019-05-14T22:35:58.108Z,29.03
2019-05-14T22:38:29.389Z,30.77
2019-05-14T22:40:59.791Z,28.67
2019-05-14T22:43:29.910Z,28.37
2019-05-14T22:46:00.030Z,29.83
2019-05-14T22:48:30.369Z,27.33
2019-05-14T22:51:00.549Z,28.20
2019-05-14T22:53:32.498Z,28.23
2019-05-14T22:56:02.670Z,28.73
2019-05-14T22:58:32.718Z,30.77
2019-05-14T23:01:14.264Z,29.13
2019-05-14T23:03:34.831Z,27.93
2019-05-14T23:06:04.994Z,28.03
2019-05-14T23:08:35.041Z,28.27
2019-05-14T23:11:05.176Z,27.73
2019-05-14T23:13:36.311Z,27.80
2019-05-14T23:16:08.254Z,29.80
2019-05-14T23:18:38.268Z,28.23
2019-05-14T23:21:09.120Z,27.33
2019-05-14T23:23:39.474Z,28.40
2019-05-14T23:26:09.602Z,29.07
2019-05-14T23:28:45.454Z,28.00
2019-05-14T23:31:11.585Z,27.77
2019-05-14T23:33:41.715Z,28.37
2019-05-14T23:36:11.999Z,26.83
2019-05-14T23:38:42.141Z,27.90
2019-05-14T23:41:12.279Z,27.17
2019-05-14T23:43:42.406Z,27.10
2019-05-14T23:46:12.542Z,25.83
2019-05-14T23:48:42.786Z,26.70
2019-05-14T23:51:12.886Z,26.27
2019-05-14T23:53:43.022Z,26.80
2019-05-14T23:56:13.159Z,26.20
2019-05-14T23:58:54.879Z,26.67
